logo
Rechercher aéroport 
image banner adimage banner adimage banner ad
image banner ad

SCBI - Pampa Guanaco

Situé à Bahia Inutil, Chile

ICAO - SCBI, IATA -

Données fournies par Airmate  

Information générale

Coordonnées: S54°3'0" W68°48'34"
Élévation : 591 feet MSL.
Variation magnétique : 12° East
Voir autres Aéroports à Magallanes

Données opérationnelles

Special qualification required
Heure actuelle UTC:
Heure actuelle locale:
Météo à : SAWE - Río Grande ( 76 km )
METAR: SAWE 032100Z 03006KT 350V050 9999 FEW040 12/03 Q1015
TAF: TAF SAWE 031700Z 0318/0418 24010KT CAVOK TX13/0319Z TN05/0410Z TEMPO 0407/0413 27005KT
Voir NOTAMs / SUP AIP / TFR affectant cet aéroport [VIEW]
Fréquences de communication: [VIEW]

Pistes:

Identifiant RWYQFULongueur (ft)Largeur (ft)SurfaceLDA (ft)
0890°262566ASPH
26270°262566ASPH

Coordonnées de l'aéroport

Adresse: Bahia Inutil Chile

Vue satellite de SCBI